Time;durP1;ratioP1;P1;durP2;ratioP2;P2;SDS_P1;SDS_P2;PMS_P1;PMS_P2;Temp;Humidity;BMP_temperature;BMP_pressure;BME280_temperature;BME280_humidity;BME280_pressure;Samples;Min_cycle;Max_cycle;Signal;HPM_P1;HPM_P2
2023/09/03 00:01:15;;;;;;;0.00;0.00;;;;;;;19.12;100.00;101210.28;5046335;28;20048;-83
2023/09/03 00:03:40;;;;;;;0.00;0.00;;;;;;;19.09;100.00;101213.28;5044041;28;20033;-84
2023/09/03 00:06:05;;;;;;;0.08;0.00;;;;;;;19.02;100.00;101210.56;5063217;28;20031;-84
2023/09/03 00:08:31;;;;;;;0.10;0.00;;;;;;;18.98;100.00;101204.00;5045796;28;20064;-84
2023/09/03 00:10:56;;;;;;;0.05;0.00;;;;;;;18.96;100.00;101202.53;5040896;28;20037;-84
2023/09/03 00:13:22;;;;;;;0.00;0.00;;;;;;;18.94;100.00;101213.28;5043813;28;20025;-84
2023/09/03 00:15:48;;;;;;;0.00;0.00;;;;;;;18.93;100.00;101206.34;5044940;28;20121;-84
2023/09/03 00:18:14;;;;;;;0.10;0.00;;;;;;;18.90;100.00;101207.53;5044596;28;20497;-84
2023/09/03 00:20:41;;;;;;;0.13;0.00;;;;;;;18.88;100.00;101196.38;5051370;28;20091;-84
2023/09/03 00:23:06;;;;;;;0.13;0.03;;;;;;;18.87;100.00;101191.25;5030852;28;20449;-84
2023/09/03 00:25:38;;;;;;;0.30;0.10;;;;;;;18.86;100.00;101190.44;5043982;28;20028;-84
2023/09/03 00:28:03;;;;;;;0.32;0.00;;;;;;;18.86;100.00;101189.63;5046092;28;20029;-84
2023/09/03 00:30:29;;;;;;;0.05;0.00;;;;;;;18.81;100.00;101192.81;5043285;28;20090;-84
2023/09/03 00:32:55;;;;;;;0.00;0.00;;;;;;;18.85;100.00;101196.72;5039718;28;20064;-83
2023/09/03 00:35:20;;;;;;;0.10;0.00;;;;;;;18.85;100.00;101182.72;5039185;28;20444;-84
2023/09/03 00:37:46;;;;;;;0.10;0.00;;;;;;;18.83;100.00;101174.16;5032999;28;20505;-84
2023/09/03 00:40:11;;;;;;;0.00;0.00;;;;;;;18.78;100.00;101182.59;5041508;28;20029;-84
2023/09/03 00:42:37;;;;;;;0.10;0.00;;;;;;;18.73;100.00;101173.59;5037080;28;20094;-84
2023/09/03 00:45:03;;;;;;;0.10;0.00;;;;;;;18.69;100.00;101173.13;5038395;28;20029;-84
2023/09/03 00:47:28;;;;;;;0.00;0.00;;;;;;;18.66;100.00;101162.09;5048940;28;20071;-83
2023/09/03 00:49:54;;;;;;;0.00;0.00;;;;;;;18.69;100.00;101167.84;5032414;28;20099;-83
2023/09/03 00:52:21;;;;;;;0.00;0.00;;;;;;;18.88;100.00;101169.97;5031234;28;20033;-83
2023/09/03 00:54:47;;;;;;;0.28;0.08;;;;;;;18.86;100.00;101179.88;5045690;28;20155;-84
2023/09/03 00:57:13;;;;;;;0.43;0.13;;;;;;;18.84;100.00;101184.53;5042230;28;20577;-84
2023/09/03 00:59:40;;;;;;;0.10;0.03;;;;;;;18.86;100.00;101190.44;5048739;28;20029;-84
2023/09/03 01:02:06;;;;;;;0.20;0.08;;;;;;;18.96;100.00;101184.06;5042756;28;20037;-84
2023/09/03 01:04:31;;;;;;;0.20;0.00;;;;;;;19.02;100.00;101180.69;5039203;28;20033;-84
2023/09/03 01:06:57;;;;;;;0.00;0.00;;;;;;;19.03;100.00;101191.06;5044094;28;20083;-84
2023/09/03 01:09:23;;;;;;;0.20;0.00;;;;;;;19.02;100.00;101183.31;5059061;28;20056;-84
2023/09/03 01:12:12;;;;;;;0.00;0.00;;;;;;;18.97;100.00;101177.78;5052549;28;20039;-83
2023/09/03 01:14:59;;;;;;;0.10;0.08;;;;;;;18.92;100.00;101169.56;5041366;28;20036;-83
2023/09/03 01:17:45;;;;;;;0.00;0.00;;;;;;;18.94;100.00;101168.38;5054735;28;20086;-84
2023/09/03 01:20:41;;;;;;;0.00;0.00;;;;;;;18.97;100.00;101169.84;5053140;28;20040;-83
2023/09/03 01:23:42;;;;;;;0.20;0.10;;;;;;;19.06;100.00;101156.38;5045621;28;20545;-84
2023/09/03 01:26:08;;;;;;;0.05;0.00;;;;;;;19.11;100.00;101155.81;5047129;28;20025;-83
2023/09/03 01:28:41;;;;;;;0.10;0.00;;;;;;;19.16;100.00;101161.38;5060901;28;20413;-84
2023/09/03 01:31:14;;;;;;;0.10;0.00;;;;;;;19.16;100.00;101158.75;5046427;28;20029;-84
2023/09/03 01:33:44;;;;;;;0.00;0.00;;;;;;;19.16;100.00;101162.19;5041580;28;20554;-83
2023/09/03 01:36:11;;;;;;;0.30;0.05;;;;;;;19.17;100.00;101160.38;5041375;28;20106;-83
2023/09/03 01:38:38;;;;;;;0.00;0.00;;;;;;;19.16;100.00;101164.03;5044854;28;20405;-83
2023/09/03 01:41:04;;;;;;;0.08;0.00;;;;;;;19.17;100.00;101170.94;5049771;28;20035;-83
2023/09/03 01:43:30;;;;;;;0.20;0.10;;;;;;;19.16;100.00;101169.31;5041995;28;20580;-83
2023/09/03 01:46:06;;;;;;;0.00;0.00;;;;;;;19.05;100.00;101167.13;5043685;28;20056;-83
2023/09/03 01:48:49;;;;;;;0.10;0.00;;;;;;;19.00;100.00;101161.56;5050498;28;20064;-83
2023/09/03 01:51:57;;;;;;;0.00;0.00;;;;;;;19.03;100.00;101169.13;5040180;28;20040;-84
2023/09/03 01:54:32;;;;;;;0.10;0.00;;;;;;;19.03;100.00;101163.84;5082907;28;20036;-83
2023/09/03 01:57:04;;;;;;;0.10;0.00;;;;;;;18.98;100.00;101163.56;5076715;28;20055;-83
2023/09/03 01:59:38;;;;;;;0.00;0.00;;;;;;;18.95;100.00;101163.94;5074550;28;20032;-83
2023/09/03 02:02:05;;;;;;;0.10;0.00;;;;;;;18.89;100.00;101166.31;5057990;28;20036;-84
2023/09/03 02:04:31;;;;;;;0.03;0.00;;;;;;;18.81;100.00;101166.41;5072535;28;20048;-83
2023/09/03 02:06:56;;;;;;;0.10;0.00;;;;;;;18.72;100.00;101180.69;5078282;28;20040;-83
2023/09/03 02:09:22;;;;;;;0.08;0.00;;;;;;;18.71;100.00;101180.88;5080277;28;20055;-83
2023/09/03 02:11:47;;;;;;;0.00;0.00;;;;;;;18.70;100.00;101187.13;5072725;28;20056;-83
2023/09/03 02:14:13;;;;;;;0.20;0.10;;;;;;;18.69;100.00;101193.41;5083043;28;20032;-83
2023/09/03 02:16:38;;;;;;;0.65;0.10;;;;;;;18.67;100.00;101192.78;5079294;28;20504;-83
2023/09/03 02:19:03;;;;;;;0.00;0.00;;;;;;;18.73;100.00;101194.69;5074849;28;20532;-83
2023/09/03 02:21:29;;;;;;;0.10;0.00;;;;;;;18.72;100.00;101193.88;5083486;28;20047;-83
2023/09/03 02:23:54;;;;;;;0.10;0.00;;;;;;;18.68;100.00;101204.97;5075271;28;22564;-84
2023/09/03 02:26:20;;;;;;;0.10;0.00;;;;;;;18.63;100.00;101205.50;5085490;28;20039;-84
2023/09/03 02:28:45;;;;;;;0.10;0.03;;;;;;;18.65;100.00;101206.16;5076876;28;20038;-84
2023/09/03 02:31:12;;;;;;;0.10;0.00;;;;;;;18.68;100.00;101195.25;5051866;28;20041;-83
2023/09/03 02:33:37;;;;;;;0.20;0.00;;;;;;;18.73;100.00;101187.59;5052008;28;20055;-83
2023/09/03 02:36:03;;;;;;;0.47;0.10;;;;;;;18.73;100.00;101182.31;5048542;28;20037;-83
2023/09/03 02:38:29;;;;;;;0.10;0.00;;;;;;;18.73;100.00;101184.16;5041921;28;20104;-83
2023/09/03 02:40:54;;;;;;;0.17;0.05;;;;;;;18.79;100.00;101191.34;5047505;28;20068;-83
2023/09/03 02:43:19;;;;;;;0.10;0.00;;;;;;;18.82;100.00;101191.81;5042248;28;20078;-84
2023/09/03 02:45:45;;;;;;;0.10;0.00;;;;;;;18.87;100.00;101193.91;5051394;28;20024;-83
2023/09/03 02:48:11;;;;;;;0.00;0.00;;;;;;;18.90;100.00;101189.06;5036036;28;20071;-83
2023/09/03 02:50:38;;;;;;;0.10;0.00;;;;;;;18.97;100.00;101193.63;5055365;28;20037;-83
2023/09/03 02:53:04;;;;;;;0.10;0.10;;;;;;;19.03;100.00;101193.72;5031788;28;20409;-83
2023/09/03 02:55:30;;;;;;;0.13;0.10;;;;;;;19.03;100.00;101199.00;5052744;28;20029;-83
2023/09/03 02:57:56;;;;;;;0.08;0.00;;;;;;;19.09;100.00;101202.72;5041632;28;20029;-83
2023/09/03 03:00:23;;;;;;;0.10;0.00;;;;;;;19.08;100.00;101209.84;5048769;28;20028;-83
2023/09/03 03:02:48;;;;;;;0.17;0.00;;;;;;;19.06;100.00;101217.13;5051284;28;20041;-84
2023/09/03 03:05:14;;;;;;;0.00;0.00;;;;;;;19.11;100.00;101219.22;5057102;28;20116;-83
2023/09/03 03:07:41;;;;;;;0.00;0.00;;;;;;;19.12;100.00;101226.13;5032934;28;20384;-83
2023/09/03 03:10:07;;;;;;;0.88;0.00;;;;;;;19.08;100.00;101230.13;5049979;28;20037;-83
2023/09/03 03:12:33;;;;;;;0.10;0.05;;;;;;;19.04;100.00;101234.16;5047238;28;20037;-83
2023/09/03 03:14:58;;;;;;;0.20;0.00;;;;;;;18.98;100.00;101226.94;5042445;28;20403;-83
2023/09/03 03:17:24;;;;;;;0.05;0.00;;;;;;;18.93;100.00;101224.84;5040150;28;20123;-83
2023/09/03 03:19:50;;;;;;;0.10;0.10;;;;;;;18.80;100.00;101228.13;5044043;28;20033;-84
2023/09/03 03:22:16;;;;;;;0.00;0.00;;;;;;;18.63;100.00;101231.09;5048460;28;20371;-83
2023/09/03 03:24:41;;;;;;;0.00;0.00;;;;;;;18.44;100.00;101232.34;5063547;28;20092;-83
2023/09/03 03:27:07;;;;;;;0.20;0.10;;;;;;;18.36;100.00;101233.25;5042205;28;20079;-84
2023/09/03 03:29:32;;;;;;;0.10;0.10;;;;;;;18.32;100.00;101233.78;5041053;28;20033;-83
2023/09/03 03:31:58;;;;;;;0.00;0.00;;;;;;;18.33;100.00;101230.16;5047293;28;20034;-83
2023/09/03 03:34:25;;;;;;;0.20;0.00;;;;;;;18.39;100.00;101230.28;5038999;28;20032;-84
2023/09/03 03:36:51;;;;;;;0.00;0.00;;;;;;;18.43;100.00;101230.75;5033954;28;20060;-84
2023/09/03 03:39:16;;;;;;;0.10;0.00;;;;;;;18.44;100.00;101227.91;5041078;28;20029;-84
2023/09/03 03:41:42;;;;;;;0.10;0.00;;;;;;;18.49;100.00;101230.00;5042054;28;20100;-83
2023/09/03 03:44:07;;;;;;;0.20;0.00;;;;;;;18.52;100.00;101225.19;5050667;28;20063;-84
2023/09/03 03:46:33;;;;;;;0.08;0.00;;;;;;;18.59;100.00;101220.03;5049660;28;20033;-84
2023/09/03 03:48:59;;;;;;;0.10;0.00;;;;;;;18.60;100.00;101221.69;5051326;28;20048;-83
2023/09/03 03:51:25;;;;;;;0.15;0.05;;;;;;;18.53;100.00;101208.38;5033428;28;20033;-84
2023/09/03 03:53:51;;;;;;;0.00;0.00;;;;;;;18.45;100.00;101210.25;5038933;28;20056;-84
2023/09/03 03:56:16;;;;;;;0.00;0.00;;;;;;;18.31;100.00;101205.78;5049458;28;20035;-83
2023/09/03 03:58:43;;;;;;;0.13;0.00;;;;;;;18.20;100.00;101213.09;5040733;28;20034;-83
2023/09/03 04:01:19;;;;;;;0.17;0.00;;;;;;;18.18;100.00;101217.72;5047207;28;20062;-84
2023/09/03 04:03:47;;;;;;;0.00;0.00;;;;;;;18.18;100.00;101220.34;5033532;28;20103;-83
2023/09/03 04:06:13;;;;;;;0.32;0.10;;;;;;;18.13;100.00;101216.59;5043821;28;20036;-84
2023/09/03 04:08:39;;;;;;;0.00;0.00;;;;;;;18.03;100.00;101227.38;5042607;28;20074;-83
2023/09/03 04:11:07;;;;;;;0.10;0.00;;;;;;;17.94;100.00;101231.09;5041195;28;20535;-83
2023/09/03 04:13:35;;;;;;;0.00;0.00;;;;;;;17.90;100.00;101237.69;5041618;28;20033;-84
2023/09/03 04:16:05;;;;;;;0.00;0.00;;;;;;;17.84;100.00;101225.22;5041205;28;20032;-84
2023/09/03 04:18:30;;;;;;;0.10;0.00;;;;;;;17.88;100.00;101231.78;5049542;28;20021;-83
2023/09/03 04:20:57;;;;;;;0.00;0.00;;;;;;;17.90;100.00;101229.78;5041332;28;20517;-83
2023/09/03 04:23:23;;;;;;;0.00;0.00;;;;;;;17.96;100.00;101239.59;5038751;28;20131;-84
2023/09/03 04:25:52;;;;;;;0.25;0.25;;;;;;;18.02;100.00;101233.66;5047662;28;20054;-84
2023/09/03 04:28:19;;;;;;;0.30;0.00;;;;;;;18.05;100.00;101228.03;5037369;28;20025;-84
2023/09/03 04:30:44;;;;;;;0.17;0.00;;;;;;;18.16;100.00;101235.53;5044088;28;20116;-84
2023/09/03 04:33:10;;;;;;;0.00;0.00;;;;;;;18.27;100.00;101230.84;5046978;28;20120;-84
2023/09/03 04:35:37;;;;;;;0.95;0.10;;;;;;;18.28;100.00;101225.41;5037867;28;20163;-84
2023/09/03 04:38:03;;;;;;;0.08;0.00;;;;;;;18.21;100.00;101227.94;5046039;28;20034;-84
2023/09/03 04:40:35;;;;;;;0.05;0.00;;;;;;;18.14;100.00;101228.78;5048411;28;20064;-85
2023/09/03 04:43:04;;;;;;;0.20;0.10;;;;;;;18.07;100.00;101236.59;5038311;28;20432;-84
2023/09/03 04:45:31;;;;;;;0.00;0.00;;;;;;;17.96;100.00;101241.47;5047752;28;20140;-84
2023/09/03 04:47:57;;;;;;;0.10;0.00;;;;;;;17.88;100.00;101242.31;5055769;28;20120;-84
2023/09/03 04:50:23;;;;;;;0.17;0.10;;;;;;;17.86;100.00;101242.50;5035700;28;20116;-84
2023/09/03 04:52:49;;;;;;;0.08;0.00;;;;;;;17.87;100.00;101253.84;5041461;28;20056;-84
2023/09/03 04:55:15;;;;;;;0.10;0.00;;;;;;;17.84;100.00;101254.19;5049995;28;20120;-84
2023/09/03 04:57:41;;;;;;;0.00;0.00;;;;;;;17.83;100.00;101245.47;5033673;28;20040;-84
2023/09/03 05:00:07;;;;;;;0.10;0.00;;;;;;;17.76;100.00;101239.25;5042454;28;20033;-84
2023/09/03 05:02:34;;;;;;;0.22;0.00;;;;;;;17.76;100.00;101248.97;5054681;28;20132;-84
2023/09/03 05:04:59;;;;;;;0.43;0.10;;;;;;;17.79;100.00;101246.81;5050820;28;20021;-84
2023/09/03 05:07:25;;;;;;;0.10;0.00;;;;;;;17.83;100.00;101245.47;5048701;28;20035;-85
2023/09/03 05:09:54;;;;;;;0.15;0.00;;;;;;;17.92;100.00;101248.06;5040986;28;20033;-85
2023/09/03 05:12:20;;;;;;;0.20;0.00;;;;;;;18.02;100.00;101249.47;5041262;28;20024;-86
2023/09/03 05:14:46;;;;;;;0.00;0.00;;;;;;;18.12;100.00;101250.06;5040809;28;20037;-85
2023/09/03 05:17:11;;;;;;;0.10;0.00;;;;;;;18.21;100.00;101242.94;5058348;28;20079;-86
2023/09/03 05:19:37;;;;;;;0.00;0.00;;;;;;;18.25;100.00;101238.94;5044321;28;21899;-85
2023/09/03 05:22:02;;;;;;;0.10;0.00;;;;;;;18.32;100.00;101234.63;5054017;28;20463;-85
2023/09/03 05:24:28;;;;;;;0.10;0.00;;;;;;;18.35;100.00;101234.25;5052944;28;20043;-85
2023/09/03 05:26:53;;;;;;;0.10;0.00;;;;;;;18.34;100.00;101231.78;5040524;28;20021;-84
2023/09/03 05:29:19;;;;;;;0.00;0.00;;;;;;;18.35;100.00;101230.81;5056105;28;20100;-84
2023/09/03 05:31:44;;;;;;;1.65;0.00;;;;;;;18.43;100.00;101241.28;5043887;28;20037;-84
2023/09/03 05:34:10;;;;;;;0.13;0.00;;;;;;;18.51;100.00;101243.84;5049941;28;20036;-84
2023/09/03 05:36:35;;;;;;;0.20;0.10;;;;;;;18.60;100.00;101247.25;5060925;28;20039;-84
2023/09/03 05:39:01;;;;;;;0.95;0.10;;;;;;;18.71;100.00;101252.13;5040571;28;20026;-84
2023/09/03 05:41:27;;;;;;;0.10;0.00;;;;;;;18.80;100.00;101258.97;5064889;28;20029;-84
2023/09/03 05:43:55;;;;;;;0.00;0.00;;;;;;;18.86;100.00;101251.16;5067339;28;20128;-84
2023/09/03 05:46:20;;;;;;;0.00;0.00;;;;;;;18.90;100.00;101249.78;5053499;28;20079;-84
2023/09/03 05:48:50;;;;;;;0.00;0.00;;;;;;;18.97;100.00;101249.06;5053217;28;20025;-84
2023/09/03 05:51:16;;;;;;;0.52;0.10;;;;;;;19.01;100.00;101253.81;5065362;28;20029;-84
2023/09/03 05:53:41;;;;;;;0.10;0.00;;;;;;;19.06;100.00;101256.72;5048139;28;20550;-84
2023/09/03 05:56:09;;;;;;;0.20;0.20;;;;;;;19.11;100.00;101251.72;5047352;28;20129;-84
2023/09/03 05:58:35;;;;;;;1.00;0.10;;;;;;;19.19;100.00;101254.28;5047160;28;20024;-84
2023/09/03 06:01:10;;;;;;;0.40;0.10;;;;;;;19.26;100.00;101257.03;5050212;28;20102;-84
2023/09/03 06:03:38;;;;;;;;;;;;;;;19.33;100.00;101260.59;5049149;28;20025;-84
2023/09/03 06:06:04;;;;;;;0.10;0.10;;;;;;;19.39;100.00;101265.13;5052037;28;20370;-84
2023/09/03 06:08:31;;;;;;;0.20;0.00;;;;;;;19.41;100.00;101257.81;5043618;28;20498;-86
2023/09/03 06:10:56;;;;;;;0.05;0.00;;;;;;;19.50;100.00;101251.44;5047950;28;20052;-85
2023/09/03 06:13:31;;;;;;;0.20;0.10;;;;;;;19.63;100.00;101250.81;5053035;28;20517;-86
2023/09/03 06:15:57;;;;;;;0.10;0.10;;;;;;;19.72;100.00;101247.09;5049099;28;20025;-86
2023/09/03 06:18:24;;;;;;;0.13;0.10;;;;;;;19.80;100.00;101252.25;5049075;28;20045;-85
2023/09/03 06:20:50;;;;;;;0.22;0.00;;;;;;;19.92;100.00;101251.75;5049758;28;21243;-86
2023/09/03 06:23:18;;;;;;;0.00;0.00;;;;;;;19.98;100.00;101251.84;5045341;28;20536;-85
2023/09/03 06:25:50;;;;;;;0.10;0.10;;;;;;;20.07;100.00;101255.19;5049395;28;20590;-86
2023/09/03 06:28:15;;;;;;;0.22;0.00;;;;;;;20.18;100.00;101257.34;5067684;28;20028;-86
2023/09/03 06:30:41;;;;;;;0.00;0.00;;;;;;;20.24;100.00;101255.78;5051386;28;20401;-84
2023/09/03 06:33:07;;;;;;;0.30;0.10;;;;;;;20.29;100.00;101262.16;5049099;28;20035;-86
2023/09/03 06:35:33;;;;;;;0.00;0.00;;;;;;;20.40;100.00;101269.59;5050963;28;20119;-85
2023/09/03 06:37:59;;;;;;;0.10;0.00;;;;;;;20.47;100.00;101274.94;5049398;28;20112;-85
2023/09/03 06:40:25;;;;;;;0.10;0.00;;;;;;;20.53;100.00;101279.47;5049959;28;20041;-86
2023/09/03 06:42:52;;;;;;;0.08;0.08;;;;;;;20.55;100.00;101280.13;5043679;28;20036;-85
2023/09/03 06:45:19;;;;;;;0.10;0.00;;;;;;;20.53;100.00;101287.44;5051971;28;20029;-85
2023/09/03 06:47:45;;;;;;;0.05;0.00;;;;;;;20.57;100.00;101283.41;5045424;28;20088;-86
2023/09/03 06:50:11;;;;;;;0.00;0.00;;;;;;;20.62;100.00;101288.13;5048079;28;20040;-84
2023/09/03 06:52:38;;;;;;;0.05;0.00;;;;;;;20.63;100.00;101287.94;5052200;28;20029;-84
2023/09/03 06:55:04;;;;;;;0.03;0.00;;;;;;;20.65;100.00;101288.56;5050002;28;20052;-85
2023/09/03 06:57:30;;;;;;;0.10;0.00;;;;;;;20.75;100.00;101289.06;5050473;28;20033;-85
2023/09/03 06:59:55;;;;;;;0.10;0.00;;;;;;;20.84;100.00;101287.88;5042451;28;20095;-85
2023/09/03 07:02:22;;;;;;;0.10;0.00;;;;;;;20.95;100.00;101291.03;5048176;28;20025;-85
2023/09/03 07:04:48;;;;;;;0.88;0.08;;;;;;;21.01;100.00;101293.72;5050540;28;20061;-85
2023/09/03 07:07:14;;;;;;;0.10;0.00;;;;;;;21.16;100.00;101290.97;5048812;28;20409;-86
2023/09/03 07:09:39;;;;;;;0.00;0.00;;;;;;;21.23;100.00;101291.88;5045344;28;20120;-86
2023/09/03 07:12:05;;;;;;;0.05;0.00;;;;;;;21.29;100.00;101298.22;5045994;28;20131;-85
2023/09/03 07:14:32;;;;;;;0.10;0.10;;;;;;;21.34;100.00;101285.19;5045765;28;20025;-88
2023/09/03 07:16:57;;;;;;;0.10;0.00;;;;;;;21.35;100.00;101289.47;5047267;28;20040;-85
2023/09/03 07:19:23;;;;;;;0.10;0.00;;;;;;;21.35;100.00;101287.66;5051197;28;20028;-87
2023/09/03 07:21:48;;;;;;;0.00;0.00;;;;;;;21.40;100.00;101290.53;5045549;28;20488;-86
2023/09/03 07:24:14;;;;;;;0.10;0.00;;;;;;;21.45;100.00;101284.66;5054414;28;20052;-85
2023/09/03 07:26:40;;;;;;;0.10;0.00;;;;;;;21.43;100.00;101282.19;5050553;28;20468;-86
2023/09/03 07:29:05;;;;;;;0.17;0.05;;;;;;;21.48;100.00;101274.47;5042191;28;20028;-85
2023/09/03 07:31:31;;;;;;;0.00;0.00;;;;;;;21.47;100.00;101279.97;5041635;28;20025;-85
2023/09/03 07:33:59;;;;;;;0.20;0.20;;;;;;;21.49;100.00;101276.09;5060867;28;20033;-85
2023/09/03 07:36:24;;;;;;;0.00;0.00;;;;;;;21.56;99.34;101289.41;5049813;28;20129;-85
2023/09/03 07:38:50;;;;;;;0.05;0.00;;;;;;;21.56;99.49;101292.06;5044183;28;20120;-86
2023/09/03 07:41:15;;;;;;;0.15;0.10;;;;;;;21.57;100.00;101292.88;5063047;28;20037;-86
2023/09/03 07:43:41;;;;;;;0.30;0.10;;;;;;;21.57;100.00;101282.28;5048785;28;20037;-86
2023/09/03 07:46:06;;;;;;;0.00;0.00;;;;;;;21.58;100.00;101279.41;5046487;28;20029;-86
2023/09/03 07:48:32;;;;;;;0.00;0.00;;;;;;;21.70;100.00;101288.47;5039461;28;20025;-86
2023/09/03 07:50:57;;;;;;;0.00;0.00;;;;;;;21.78;99.74;101295.41;5034336;28;20037;-86
2023/09/03 07:53:23;;;;;;;0.15;0.00;;;;;;;21.81;100.00;101297.66;5037065;28;20097;-86
2023/09/03 07:55:48;;;;;;;0.13;0.00;;;;;;;21.83;98.83;101298.28;5040258;28;20403;-86
2023/09/03 07:58:13;;;;;;;0.05;0.00;;;;;;;21.86;98.12;101303.19;5044004;28;20021;-86
2023/09/03 08:00:40;;;;;;;0.00;0.00;;;;;;;22.00;96.70;101307.53;5041259;28;20045;-86
2023/09/03 08:03:06;;;;;;;0.00;0.00;;;;;;;22.09;97.87;101306.38;5042760;28;20383;-86
2023/09/03 08:05:31;;;;;;;0.00;0.00;;;;;;;22.12;96.84;101307.81;5040469;28;20057;-86
2023/09/03 08:07:57;;;;;;;0.10;0.00;;;;;;;22.18;96.41;101304.38;5042185;28;20025;-86
2023/09/03 08:10:22;;;;;;;0.00;0.00;;;;;;;22.25;93.76;101301.69;5035845;28;20033;-86
2023/09/03 08:12:50;;;;;;;0.10;0.00;;;;;;;22.32;93.13;101302.53;5034355;28;20025;-85
2023/09/03 08:15:15;;;;;;;0.20;0.00;;;;;;;22.36;98.16;101298.47;5035390;28;20032;-86
2023/09/03 08:17:41;;;;;;;0.00;0.00;;;;;;;22.46;98.10;101297.06;5046453;28;20037;-86
2023/09/03 08:20:07;;;;;;;0.00;0.00;;;;;;;22.51;96.83;101301.75;5047329;28;20033;-86
2023/09/03 08:22:32;;;;;;;0.20;0.00;;;;;;;22.49;95.92;101290.53;5041077;28;20095;-86
2023/09/03 08:24:58;;;;;;;0.10;0.00;;;;;;;22.46;95.16;101293.56;5039123;28;20037;-86
2023/09/03 08:27:23;;;;;;;0.00;0.00;;;;;;;22.54;97.24;101290.72;5043747;28;20028;-86
2023/09/03 08:29:49;;;;;;;0.10;0.00;;;;;;;22.69;99.29;101299.28;5043222;28;20120;-85
2023/09/03 08:32:15;;;;;;;0.00;0.00;;;;;;;22.76;96.38;101297.47;5042864;28;20070;-86
2023/09/03 08:34:40;;;;;;;0.00;0.00;;;;;;;22.76;94.60;101294.81;5049695;28;20029;-86
2023/09/03 08:37:06;;;;;;;0.00;0.00;;;;;;;22.81;95.25;101288.91;5038461;28;20083;-86
2023/09/03 08:39:31;;;;;;;0.10;0.05;;;;;;;22.79;97.54;101291.78;5044312;28;20059;-86
2023/09/03 08:41:57;;;;;;;0.00;0.00;;;;;;;22.84;95.98;101281.34;5044921;28;20033;-86
2023/09/03 08:44:35;;;;;;;0.22;0.00;;;;;;;22.97;97.91;101285.03;5041135;28;20032;-86
2023/09/03 08:47:03;;;;;;;0.20;0.10;;;;;;;23.00;100.00;101285.44;5032354;28;20120;-86
2023/09/03 08:49:30;;;;;;;0.00;0.00;;;;;;;23.03;95.01;101295.66;5041507;28;20086;-86
2023/09/03 08:51:59;;;;;;;0.08;0.00;;;;;;;23.04;95.58;101299.13;5038564;28;20040;-86
2023/09/03 08:54:26;;;;;;;0.00;0.00;;;;;;;23.03;99.11;101290.34;5045443;28;20056;-86
2023/09/03 08:56:52;;;;;;;0.10;0.00;;;;;;;23.09;99.66;101283.38;5037506;28;20542;-86
2023/09/03 08:59:18;;;;;;;0.10;0.00;;;;;;;23.12;100.00;101282.97;5041218;28;20128;-86
2023/09/03 09:01:50;;;;;;;0.00;0.00;;;;;;;23.17;100.00;101283.16;5039217;28;20033;-87
2023/09/03 09:04:16;;;;;;;0.00;0.00;;;;;;;23.24;100.00;101285.78;5045470;28;20394;-87
2023/09/03 09:06:43;;;;;;;0.10;0.00;;;;;;;;;;5036934;28;20037;-86
2023/09/03 09:09:10;;;;;;;0.10;0.00;;;;;;;23.30;100.00;101280.47;5041740;28;20037;-86
2023/09/03 09:11:40;;;;;;;0.00;0.00;;;;;;;23.45;100.00;101278.38;5041532;28;20022;-87
2023/09/03 09:14:27;;;;;;;0.10;0.00;;;;;;;23.52;97.78;101283.69;5042177;28;20029;-87
2023/09/03 09:16:53;;;;;;;0.08;0.00;;;;;;;23.53;96.21;101284.50;5057561;28;20045;-86
2023/09/03 09:19:18;;;;;;;0.10;0.00;;;;;;;23.63;99.79;101285.69;5051813;28;20022;-86
2023/09/03 09:21:44;;;;;;;0.10;0.05;;;;;;;23.70;99.66;101296.31;5050321;28;20025;-86
2023/09/03 09:24:11;;;;;;;0.00;0.00;;;;;;;23.65;97.71;101288.16;5046894;28;20033;-86
2023/09/03 09:26:38;;;;;;;0.00;0.00;;;;;;;23.61;97.85;101285.13;5064427;28;20028;-86
2023/09/03 09:29:04;;;;;;;0.15;0.05;;;;;;;23.65;100.00;101286.31;5052156;28;20027;-86
2023/09/03 09:31:31;;;;;;;0.10;0.00;;;;;;;23.70;100.00;101288.34;5053738;28;20033;-86
2023/09/03 09:34:00;;;;;;;0.00;0.00;;;;;;;23.74;100.00;101289.53;5037324;28;20043;-86
2023/09/03 09:36:26;;;;;;;0.08;0.00;;;;;;;23.71;98.87;101288.13;5042418;28;20033;-86
2023/09/03 09:38:52;;;;;;;0.15;0.00;;;;;;;23.77;95.09;101283.81;5057016;28;20037;-86
2023/09/03 09:41:27;;;;;;;0.00;0.00;;;;;;;23.76;92.92;101275.00;5042767;28;20035;-86
2023/09/03 09:43:53;;;;;;;0.15;0.00;;;;;;;23.80;97.93;101270.09;5043260;28;20179;-86
2023/09/03 09:46:31;;;;;;;0.00;0.00;;;;;;;23.88;98.89;101266.38;5045378;28;20112;-86
2023/09/03 09:48:58;;;;;;;0.00;0.00;;;;;;;23.98;100.00;101267.53;5047876;28;20044;-86
2023/09/03 09:51:23;;;;;;;0.20;0.10;;;;;;;24.00;100.00;101270.81;5043217;28;20033;-86
2023/09/03 09:53:59;;;;;;;0.00;0.00;;;;;;;24.04;98.57;101266.69;5039242;28;20055;-86
2023/09/03 09:56:27;;;;;;;0.03;0.00;;;;;;;24.03;99.30;101266.91;5038076;28;20041;-86
2023/09/03 09:58:53;;;;;;;0.00;0.00;;;;;;;23.99;98.43;101273.69;5040509;28;20034;-86
2023/09/03 10:01:18;;;;;;;0.00;0.00;;;;;;;23.95;95.47;101273.28;5047994;28;20040;-86
2023/09/03 10:03:48;;;;;;;0.10;0.00;;;;;;;23.97;94.04;101276.56;5047694;28;20032;-86
2023/09/03 10:06:21;;;;;;;0.03;0.00;;;;;;;23.91;94.40;101269.41;5058482;28;20074;-86
2023/09/03 10:08:48;;;;;;;0.10;0.00;;;;;;;23.94;96.06;101270.84;5039095;28;20033;-86
2023/09/03 10:11:13;;;;;;;0.40;0.20;;;;;;;24.00;98.43;101262.81;5045282;28;20028;-86
2023/09/03 10:13:39;;;;;;;0.10;0.00;;;;;;;24.05;97.97;101263.00;5037248;28;20376;-85
2023/09/03 10:16:07;;;;;;;0.20;0.00;;;;;;;24.07;98.16;101260.94;5052587;28;20517;-85
2023/09/03 10:18:41;;;;;;;0.00;0.00;;;;;;;24.07;98.31;101255.63;5051791;28;20033;-85
2023/09/03 10:21:08;;;;;;;0.10;0.00;;;;;;;24.12;99.83;101253.09;5062567;28;20025;-85
2023/09/03 10:23:48;;;;;;;0.30;0.10;;;;;;;24.12;100.00;101246.97;5046554;28;20037;-85
2023/09/03 10:26:19;;;;;;;0.10;0.00;;;;;;;23.99;99.53;101249.72;5034499;28;20099;-86
2023/09/03 10:28:49;;;;;;;0.47;0.10;;;;;;;24.01;98.19;101245.00;5049459;28;20116;-86
2023/09/03 10:31:15;;;;;;;0.10;0.00;;;;;;;24.24;99.13;101239.91;5034446;28;20025;-83
2023/09/03 10:33:41;;;;;;;0.10;0.10;;;;;;;24.24;94.15;101244.44;5048614;28;20037;-85
2023/09/03 10:36:15;;;;;;;0.20;0.00;;;;;;;24.11;96.57;101246.13;5032471;28;20044;-86
2023/09/03 10:38:41;;;;;;;0.10;0.00;;;;;;;24.19;98.33;101249.59;5048157;28;20025;-86
2023/09/03 10:41:18;;;;;;;0.20;0.10;;;;;;;24.33;100.00;101251.16;5042786;28;20086;-86
2023/09/03 10:43:46;;;;;;;0.00;0.00;;;;;;;24.40;100.00;101250.09;5045288;28;20025;-86
2023/09/03 10:46:12;;;;;;;0.08;0.00;;;;;;;24.49;100.00;101245.31;5047462;28;20025;-86
2023/09/03 10:48:37;;;;;;;0.20;0.00;;;;;;;24.54;100.00;101242.81;5041542;28;20514;-86
2023/09/03 10:51:04;;;;;;;0.10;0.00;;;;;;;24.55;99.04;101239.13;5045256;28;20116;-86
2023/09/03 10:53:43;;;;;;;0.25;0.10;;;;;;;24.43;97.36;101238.19;5060952;28;20099;-86
2023/09/03 10:56:15;;;;;;;0.00;0.00;;;;;;;24.40;99.12;101246.59;5037746;28;20037;-86
2023/09/03 10:58:57;;;;;;;0.00;0.00;;;;;;;24.40;98.41;101247.41;5041204;28;20025;-86
2023/09/03 11:01:33;;;;;;;0.20;0.10;;;;;;;24.35;95.80;101257.09;5037070;28;20030;-85
2023/09/03 11:04:03;;;;;;;0.00;0.00;;;;;;;24.37;98.95;101263.00;5044254;28;20033;-85
2023/09/03 11:06:31;;;;;;;0.08;0.00;;;;;;;24.41;98.31;101249.06;5061703;28;20045;-85
2023/09/03 11:09:08;;;;;;;0.20;0.00;;;;;;;24.42;90.51;101250.69;5048460;28;20028;-85
2023/09/03 11:11:35;;;;;;;0.38;0.03;;;;;;;24.50;96.02;101252.28;5043652;28;20027;-85
2023/09/03 11:14:01;;;;;;;0.10;0.00;;;;;;;24.43;97.58;101251.50;5037138;28;20032;-86
2023/09/03 11:16:34;;;;;;;0.15;0.00;;;;;;;24.40;97.12;101247.41;5044228;28;20036;-86
2023/09/03 11:19:04;;;;;;;0.10;0.10;;;;;;;24.61;89.99;101242.72;5041599;28;20029;-86
2023/09/03 11:21:30;;;;;;;0.17;0.00;;;;;;;24.92;88.58;101245.31;5047391;28;20033;-83